Terminal Aerodrome Forecast
Issued by NWS Wilmington, OH

Home | Current Version | Previous Version | Text Only | Print | Product List | Glossary On
Versions: 1 2 3 4 5 6 7 8 9 10 11 12 13 14
000
FTUS41 KILN 202320
TAFILN
TAF
KILN 202320Z 2100/2124 25008KT P6SM SCT050 BKN200
     FM210300 24007KT P6SM VCSH BKN120
     FM211000 27004KT P6SM FEW025 BKN040
     FM211500 29005KT P6SM BKN040
     FM212300 26004KT P6SM SCT050 BKN200=

USA.gov is the U.S. government's official web portal to all federal, state and local government web resources and services.